createdAt,value
2022-10-07T02:12:56.455Z,24.75
2022-10-07T02:13:49.171Z,24.78
2022-10-07T02:14:44.798Z,24.73
2022-10-07T02:15:34.147Z,24.73
2022-10-07T02:16:24.231Z,24.77
2022-10-07T02:17:09.843Z,24.78
2022-10-07T02:17:53.703Z,24.77
2022-10-07T02:18:38.281Z,24.73
2022-10-07T02:19:23.865Z,24.71
2022-10-07T02:20:07.494Z,24.76
2022-10-07T02:20:51.390Z,24.73
2022-10-07T02:21:31.759Z,24.73
2022-10-07T02:22:19.079Z,24.75
2022-10-07T02:23:05.430Z,24.74
2022-10-07T02:23:54.809Z,24.76
2022-10-07T02:24:52.966Z,24.78
2022-10-07T02:25:45.824Z,24.77
2022-10-07T02:26:43.471Z,24.76
2022-10-07T02:27:30.940Z,24.79
2022-10-07T02:28:23.724Z,24.79
2022-10-07T02:29:16.662Z,24.82
2022-10-07T02:30:11.304Z,24.81
2022-10-07T02:31:57.031Z,24.78
2022-10-07T02:33:13.953Z,24.80
2022-10-07T02:34:20.168Z,24.71
2022-10-07T02:35:15.725Z,24.72
2022-10-07T02:36:14.909Z,24.72
2022-10-07T02:38:24.139Z,24.75
2022-10-07T02:39:14.980Z,24.75
2022-10-07T02:39:59.026Z,24.78
2022-10-07T02:40:44.021Z,24.80
2022-10-07T02:41:29.804Z,24.81
2022-10-07T02:42:15.267Z,24.76
2022-10-07T02:43:03.819Z,24.78
2022-10-07T02:43:47.251Z,24.79
2022-10-07T02:44:29.995Z,24.77
2022-10-07T02:45:17.185Z,24.76
2022-10-07T02:46:05.659Z,24.78
2022-10-07T02:49:01.447Z,24.80
2022-10-07T02:49:47.033Z,24.78
2022-10-07T02:50:18.402Z,24.72
2022-10-07T02:50:49.769Z,24.81
2022-10-07T02:51:21.515Z,24.81
2022-10-07T02:51:52.940Z,24.81
2022-10-07T02:52:24.387Z,24.81
2022-10-07T02:52:55.826Z,24.81
2022-10-07T02:53:27.231Z,24.81
2022-10-07T02:53:58.659Z,24.80
2022-10-07T02:54:30.011Z,24.81
2022-10-07T02:55:01.403Z,24.79
2022-10-07T02:55:32.738Z,24.81
2022-10-07T02:56:04.106Z,24.79
2022-10-07T02:56:35.495Z,24.79
2022-10-07T02:57:06.929Z,24.82
2022-10-07T02:57:38.382Z,24.81
2022-10-07T02:58:09.890Z,24.81
2022-10-07T02:58:41.289Z,24.78
2022-10-07T02:59:12.706Z,24.78
2022-10-07T02:59:44.131Z,24.76
2022-10-07T03:00:15.453Z,24.78
2022-10-07T03:00:46.867Z,24.75
2022-10-07T03:01:18.278Z,24.74
2022-10-07T03:01:49.718Z,24.73
2022-10-07T03:02:21.129Z,24.71
2022-10-07T03:02:52.479Z,24.71
2022-10-07T03:03:24.006Z,24.73
2022-10-07T03:03:55.442Z,24.73
2022-10-07T03:04:26.927Z,24.72
2022-10-07T03:04:58.340Z,24.71
2022-10-07T03:05:29.816Z,24.71
2022-10-07T03:06:01.217Z,24.69
2022-10-07T03:06:32.635Z,24.71
2022-10-07T03:07:04.078Z,24.72
2022-10-07T03:07:35.422Z,24.76
2022-10-07T03:08:06.804Z,24.74
2022-10-07T03:08:38.189Z,24.74
2022-10-07T03:09:09.594Z,24.73
2022-10-07T03:09:40.961Z,24.74
2022-10-07T03:10:12.342Z,24.72
2022-10-07T03:10:43.761Z,24.71
2022-10-07T03:11:15.168Z,24.71
2022-10-07T03:11:46.614Z,24.69
2022-10-07T03:12:18.051Z,24.71
2022-10-07T03:12:49.408Z,24.71
2022-10-07T03:13:20.748Z,24.70
2022-10-07T03:13:52.202Z,24.72
2022-10-07T03:14:23.567Z,24.70
2022-10-07T03:14:54.963Z,24.71
2022-10-07T03:15:26.404Z,24.73
2022-10-07T03:15:57.922Z,24.69
2022-10-07T03:16:29.456Z,24.71
2022-10-07T03:17:00.893Z,24.72
2022-10-07T03:17:32.277Z,24.76
2022-10-07T03:18:03.659Z,24.74
2022-10-07T03:18:35.004Z,24.69
2022-10-07T03:19:06.393Z,24.72
2022-10-07T03:19:37.836Z,24.71
2022-10-07T03:20:09.187Z,24.72
2022-10-07T03:20:40.575Z,24.71
2022-10-07T03:21:11.923Z,24.68
2022-10-07T03:21:43.266Z,24.67
2022-10-07T03:22:14.708Z,24.67
2022-10-07T03:22:46.104Z,24.70
2022-10-07T03:23:17.533Z,24.71
2022-10-07T03:23:48.949Z,24.72
2022-10-07T03:24:20.301Z,24.74
2022-10-07T03:24:51.708Z,24.74
2022-10-07T03:25:23.059Z,24.78
2022-10-07T03:25:54.441Z,24.76
2022-10-07T03:26:25.905Z,24.80
2022-10-07T03:26:57.231Z,24.73
2022-10-07T03:27:28.628Z,24.73
2022-10-07T03:28:00.043Z,24.74
2022-10-07T03:28:31.532Z,24.77
2022-10-07T03:29:02.960Z,24.78
2022-10-07T03:29:34.359Z,24.79
2022-10-07T03:30:05.735Z,24.80
2022-10-07T03:30:37.209Z,24.80
2022-10-07T03:31:08.693Z,24.81
2022-10-07T03:31:40.143Z,24.79
2022-10-07T03:32:11.550Z,24.79
2022-10-07T03:32:42.925Z,24.77
2022-10-07T03:33:14.355Z,24.80
2022-10-07T03:33:45.714Z,24.78
2022-10-07T03:34:17.147Z,24.76
2022-10-07T03:34:48.542Z,24.72
2022-10-07T03:35:19.920Z,24.74
2022-10-07T03:35:51.311Z,24.70
2022-10-07T03:36:22.724Z,24.70
2022-10-07T03:36:54.187Z,24.67
2022-10-07T03:37:25.574Z,24.71
2022-10-07T03:37:56.904Z,24.72
2022-10-07T03:38:28.266Z,24.73
2022-10-07T03:38:59.697Z,24.75
2022-10-07T03:39:31.060Z,24.73
2022-10-07T03:40:02.546Z,24.74
2022-10-07T03:40:33.937Z,24.74
2022-10-07T03:41:05.293Z,24.72
2022-10-07T03:41:36.692Z,24.70
2022-10-07T03:42:08.095Z,24.66
2022-10-07T03:42:39.461Z,24.69
2022-10-07T03:43:10.864Z,24.70
2022-10-07T03:43:42.245Z,24.70
2022-10-07T03:44:13.589Z,24.67
2022-10-07T03:44:45.043Z,24.73
2022-10-07T03:45:16.405Z,24.72
2022-10-07T03:45:47.831Z,24.71
2022-10-07T03:46:19.213Z,24.72
2022-10-07T03:46:50.694Z,24.73
2022-10-07T03:47:22.395Z,24.73
2022-10-07T03:47:53.761Z,24.71
2022-10-07T03:48:25.102Z,24.69
2022-10-07T03:48:56.443Z,24.70
2022-10-07T03:49:27.786Z,24.72
2022-10-07T03:49:59.226Z,24.70
2022-10-07T03:50:30.642Z,24.71
2022-10-07T03:51:02.017Z,24.70
2022-10-07T03:51:33.465Z,24.68
2022-10-07T03:52:04.834Z,24.71
2022-10-07T03:52:36.315Z,24.71
2022-10-07T03:53:07.660Z,24.70
2022-10-07T03:53:38.995Z,24.73
2022-10-07T03:54:10.419Z,24.70
2022-10-07T03:54:41.814Z,24.73
2022-10-07T03:55:13.301Z,24.72
2022-10-07T03:55:44.658Z,24.70
2022-10-07T03:56:16.053Z,24.68
2022-10-07T03:56:47.415Z,24.70
2022-10-07T03:57:18.869Z,24.68
2022-10-07T03:57:50.247Z,24.70
2022-10-07T03:58:21.803Z,24.69
2022-10-07T03:58:53.154Z,24.70
2022-10-07T03:59:24.589Z,24.70
2022-10-07T03:59:55.982Z,24.72
2022-10-07T04:00:27.330Z,24.72
2022-10-07T04:00:58.763Z,24.73
2022-10-07T04:01:30.219Z,24.74
2022-10-07T04:02:01.645Z,24.72
2022-10-07T04:02:33.083Z,24.70
2022-10-07T04:03:04.521Z,24.70
2022-10-07T04:03:35.930Z,24.72
2022-10-07T04:04:07.358Z,24.72
2022-10-07T04:04:38.703Z,24.78
2022-10-07T04:05:10.134Z,24.72
2022-10-07T04:05:41.533Z,24.72
2022-10-07T04:06:12.990Z,24.70
2022-10-07T04:06:44.382Z,24.69
2022-10-07T04:07:15.721Z,24.69
2022-10-07T04:07:47.356Z,24.68
2022-10-07T04:08:18.955Z,24.69
2022-10-07T04:08:50.339Z,24.69
2022-10-07T04:09:21.722Z,24.71
2022-10-07T04:09:53.113Z,24.71
2022-10-07T04:10:24.518Z,24.74
2022-10-07T04:10:55.914Z,24.76
2022-10-07T04:11:27.369Z,24.76
2022-10-07T04:11:58.710Z,24.77
2022-10-07T04:12:30.141Z,24.73
2022-10-07T04:13:01.526Z,24.71
2022-10-07T04:13:32.895Z,24.73
2022-10-07T04:14:04.351Z,24.73
2022-10-07T04:14:35.667Z,24.76
2022-10-07T04:15:07.034Z,24.73
2022-10-07T04:15:38.395Z,24.68
2022-10-07T04:16:10.051Z,24.69
2022-10-07T04:16:41.477Z,24.72
2022-10-07T04:17:12.863Z,24.70
2022-10-07T04:17:44.642Z,24.66
2022-10-07T04:18:16.245Z,24.67
2022-10-07T04:18:47.641Z,24.67
2022-10-07T04:19:19.017Z,24.65
2022-10-07T04:19:50.392Z,24.65
2022-10-07T04:20:21.770Z,24.68
2022-10-07T04:20:53.187Z,24.66
2022-10-07T04:21:24.522Z,24.67
2022-10-07T04:21:55.921Z,24.67
2022-10-07T04:22:27.309Z,24.66
2022-10-07T04:22:58.806Z,24.67
2022-10-07T04:23:30.269Z,24.69
2022-10-07T04:24:01.838Z,24.71
2022-10-07T04:24:33.207Z,24.72
2022-10-07T04:25:04.573Z,24.70
2022-10-07T04:25:35.987Z,24.72
2022-10-07T04:26:07.549Z,24.73
2022-10-07T04:26:39.068Z,24.71
2022-10-07T04:27:10.446Z,24.73
2022-10-07T04:27:51.539Z,24.72
2022-10-07T04:28:23.588Z,24.73
2022-10-07T04:28:55.049Z,24.73
2022-10-07T04:29:26.490Z,24.73
2022-10-07T04:29:57.841Z,24.70
2022-10-07T04:30:29.327Z,24.69
2022-10-07T04:31:00.823Z,24.67
2022-10-07T04:31:32.377Z,24.68
2022-10-07T04:32:03.831Z,24.67
2022-10-07T04:32:35.440Z,24.68
2022-10-07T04:33:06.795Z,24.71
2022-10-07T04:33:38.236Z,24.69
2022-10-07T04:34:09.654Z,24.68
2022-10-07T04:34:41.084Z,24.72
2022-10-07T04:35:12.518Z,24.72
2022-10-07T04:35:43.935Z,24.74
2022-10-07T04:36:15.434Z,24.72
2022-10-07T04:36:46.871Z,24.76
2022-10-07T04:37:18.237Z,24.75
2022-10-07T04:37:49.618Z,24.71
2022-10-07T04:38:23.305Z,24.72
2022-10-07T04:38:57.760Z,24.72
2022-10-07T04:39:49.109Z,24.68
2022-10-07T04:40:20.499Z,24.66
2022-10-07T04:40:51.899Z,24.67
2022-10-07T04:41:23.343Z,24.69
2022-10-07T04:41:54.789Z,24.65
2022-10-07T04:42:26.147Z,24.67
2022-10-07T04:42:57.520Z,24.67
2022-10-07T04:43:29.105Z,24.64
2022-10-07T04:44:00.460Z,24.63
2022-10-07T04:44:31.882Z,24.61
2022-10-07T04:45:03.241Z,24.63
2022-10-07T04:45:34.667Z,24.63
2022-10-07T04:46:06.087Z,24.65
2022-10-07T04:46:37.536Z,24.68
2022-10-07T04:47:09.097Z,24.68
2022-10-07T04:47:40.507Z,24.69
2022-10-07T04:48:12.009Z,24.68
2022-10-07T04:48:43.405Z,24.69
2022-10-07T04:49:14.756Z,24.70
2022-10-07T04:49:46.105Z,24.68
2022-10-07T04:50:17.471Z,24.65
2022-10-07T04:50:48.817Z,24.67
2022-10-07T04:51:20.275Z,24.66
2022-10-07T04:51:51.689Z,24.67
2022-10-07T04:52:23.013Z,24.68
2022-10-07T04:52:54.445Z,24.68
2022-10-07T04:53:25.812Z,24.69
2022-10-07T04:53:57.353Z,24.70
2022-10-07T04:54:28.785Z,24.70
2022-10-07T04:55:00.171Z,24.73
2022-10-07T04:55:31.623Z,24.70
2022-10-07T04:56:02.990Z,24.71
2022-10-07T04:56:34.408Z,24.72
2022-10-07T04:57:05.849Z,24.71
2022-10-07T04:57:37.228Z,24.72
2022-10-07T04:58:08.712Z,24.70
2022-10-07T04:58:40.166Z,24.71
2022-10-07T04:59:11.570Z,24.70
2022-10-07T04:59:43.328Z,24.68
2022-10-07T05:00:14.784Z,24.71
2022-10-07T05:00:46.205Z,24.70
2022-10-07T05:01:17.725Z,24.72
2022-10-07T05:01:49.162Z,24.77
2022-10-07T05:02:20.749Z,24.72
2022-10-07T05:02:52.178Z,24.74
2022-10-07T05:03:23.550Z,24.76
2022-10-07T05:03:55.033Z,24.72
2022-10-07T05:04:26.471Z,24.77
2022-10-07T05:04:57.927Z,24.76
2022-10-07T05:05:29.319Z,24.73
2022-10-07T05:06:05.187Z,24.75
2022-10-07T05:06:37.112Z,24.72
2022-10-07T05:07:08.681Z,24.69
2022-10-07T05:07:40.274Z,24.67
2022-10-07T05:08:11.661Z,24.65
2022-10-07T05:08:43.108Z,24.68
2022-10-07T05:09:14.453Z,24.69
2022-10-07T05:09:45.787Z,24.70
2022-10-07T05:10:17.177Z,24.70
2022-10-07T05:10:48.544Z,24.71
2022-10-07T05:11:19.955Z,24.69
2022-10-07T05:11:51.468Z,24.69
2022-10-07T05:12:22.873Z,24.71
2022-10-07T05:12:56.161Z,24.70
2022-10-07T05:13:27.995Z,24.70
2022-10-07T05:13:59.410Z,24.67
2022-10-07T05:14:30.872Z,24.67
2022-10-07T05:15:02.271Z,24.65
2022-10-07T05:15:33.718Z,24.69
2022-10-07T05:16:05.176Z,24.70
2022-10-07T05:16:36.646Z,24.71
2022-10-07T05:17:08.014Z,24.70
2022-10-07T05:17:39.476Z,24.69
2022-10-07T05:18:10.916Z,24.67
2022-10-07T05:18:42.273Z,24.67
2022-10-07T05:19:13.672Z,24.63
2022-10-07T05:19:45.076Z,24.65
2022-10-07T05:20:16.482Z,24.68
2022-10-07T05:20:47.830Z,24.69
2022-10-07T05:21:19.212Z,24.70
2022-10-07T05:21:50.568Z,24.67
2022-10-07T05:22:22.055Z,24.66
2022-10-07T05:22:54.023Z,24.65
2022-10-07T05:23:28.341Z,24.69
2022-10-07T05:24:00.026Z,24.69
2022-10-07T05:24:31.412Z,24.67
2022-10-07T05:25:02.768Z,24.67
2022-10-07T05:25:34.147Z,24.70
2022-10-07T05:26:05.503Z,24.73
2022-10-07T05:26:36.898Z,24.71
2022-10-07T05:27:08.288Z,24.70
2022-10-07T05:27:39.648Z,24.72
2022-10-07T05:28:11.109Z,24.70
2022-10-07T05:28:42.683Z,24.65
2022-10-07T05:29:14.170Z,24.64
2022-10-07T05:29:45.489Z,24.69
2022-10-07T05:30:16.821Z,24.67
2022-10-07T05:30:48.162Z,24.67
2022-10-07T05:31:19.664Z,24.63
2022-10-07T05:31:51.099Z,24.63
2022-10-07T05:32:22.518Z,24.65
2022-10-07T05:32:53.855Z,24.67
2022-10-07T05:33:25.251Z,24.69
2022-10-07T05:33:56.694Z,24.67
2022-10-07T05:34:28.067Z,24.68
2022-10-07T05:34:59.491Z,24.69
2022-10-07T05:35:30.943Z,24.69
2022-10-07T05:36:02.440Z,24.72
2022-10-07T05:36:33.796Z,24.73
2022-10-07T05:37:05.397Z,24.71
2022-10-07T05:37:36.712Z,24.74
2022-10-07T05:38:08.086Z,24.71
2022-10-07T05:38:39.486Z,24.71
2022-10-07T05:39:10.847Z,24.69
2022-10-07T05:39:42.202Z,24.71
2022-10-07T05:40:13.613Z,24.71
2022-10-07T05:40:45.063Z,24.71
2022-10-07T05:41:16.447Z,24.69
2022-10-07T05:41:47.807Z,24.68
2022-10-07T05:42:19.211Z,24.68
2022-10-07T05:42:50.692Z,24.68
2022-10-07T05:43:22.054Z,24.70
2022-10-07T05:43:53.421Z,24.67
2022-10-07T05:44:24.794Z,24.71
2022-10-07T05:44:56.170Z,24.71
2022-10-07T05:45:27.604Z,24.69
2022-10-07T05:45:59.150Z,24.69
2022-10-07T05:46:30.532Z,24.71
2022-10-07T05:47:01.924Z,24.69
2022-10-07T05:47:33.274Z,24.69
2022-10-07T05:48:04.676Z,24.69
2022-10-07T05:48:39.287Z,24.71
2022-10-07T05:49:11.086Z,24.68
2022-10-07T05:49:42.435Z,24.66
2022-10-07T05:50:13.785Z,24.66
2022-10-07T05:50:45.165Z,24.67
2022-10-07T05:51:16.578Z,24.69
2022-10-07T05:51:47.959Z,24.67
2022-10-07T05:52:19.358Z,24.68
2022-10-07T05:52:50.708Z,24.68
2022-10-07T05:53:22.078Z,24.68
2022-10-07T05:53:53.428Z,24.68
2022-10-07T05:54:24.831Z,24.67
2022-10-07T05:54:56.345Z,24.66
2022-10-07T05:55:27.735Z,24.67
2022-10-07T05:55:59.104Z,24.67
2022-10-07T05:56:30.570Z,24.69
2022-10-07T05:57:01.963Z,24.71
2022-10-07T05:57:33.301Z,24.74
2022-10-07T05:58:04.705Z,24.72
2022-10-07T05:58:36.091Z,24.73
2022-10-07T05:59:07.491Z,24.76
2022-10-07T05:59:38.958Z,24.77
2022-10-07T06:00:10.330Z,24.77
2022-10-07T06:00:41.737Z,24.74
2022-10-07T06:01:14.308Z,24.74
2022-10-07T06:01:45.939Z,24.68
2022-10-07T06:02:17.433Z,24.73
2022-10-07T06:02:49.097Z,24.68
2022-10-07T06:03:20.570Z,24.70
2022-10-07T06:03:52.059Z,24.70
2022-10-07T06:04:23.410Z,24.70
2022-10-07T06:04:54.810Z,24.71
2022-10-07T06:05:26.202Z,24.72
2022-10-07T06:05:57.562Z,24.74
2022-10-07T06:06:28.912Z,24.72
2022-10-07T06:07:00.320Z,24.74
2022-10-07T06:07:31.735Z,24.72
2022-10-07T06:08:03.121Z,24.73
2022-10-07T06:08:34.468Z,24.71
2022-10-07T06:09:05.790Z,24.71
2022-10-07T06:09:37.404Z,24.67
2022-10-07T06:10:08.821Z,24.67
2022-10-07T06:10:40.255Z,24.63
2022-10-07T06:11:11.597Z,24.68
2022-10-07T06:11:43.076Z,24.69
2022-10-07T06:12:14.460Z,24.71
2022-10-07T06:12:45.857Z,24.68
2022-10-07T06:13:17.350Z,24.68
2022-10-07T06:13:48.764Z,24.68
2022-10-07T06:14:20.177Z,24.64
2022-10-07T06:14:51.522Z,24.70
2022-10-07T06:15:22.907Z,24.70
2022-10-07T06:15:54.327Z,24.68
2022-10-07T06:16:25.822Z,24.66
2022-10-07T06:16:57.290Z,24.67
2022-10-07T06:17:28.707Z,24.64
2022-10-07T06:18:00.090Z,24.65
2022-10-07T06:18:31.557Z,24.66
2022-10-07T06:19:02.974Z,24.66
2022-10-07T06:19:34.352Z,24.69
2022-10-07T06:20:05.731Z,24.71
2022-10-07T06:20:37.178Z,24.69
2022-10-07T06:21:08.643Z,24.71
2022-10-07T06:21:40.025Z,24.70
2022-10-07T06:22:11.362Z,24.69
2022-10-07T06:22:42.842Z,24.73
2022-10-07T06:23:14.233Z,24.76
2022-10-07T06:23:45.577Z,24.76
2022-10-07T06:24:17.116Z,24.75
2022-10-07T06:24:48.506Z,24.75
2022-10-07T06:25:19.974Z,24.77
2022-10-07T06:25:51.428Z,24.76
2022-10-07T06:26:22.828Z,24.76
2022-10-07T06:26:54.238Z,24.75
2022-10-07T06:27:25.611Z,24.76
2022-10-07T06:27:57.663Z,24.74
2022-10-07T06:28:29.464Z,24.74
2022-10-07T06:29:00.909Z,24.74
2022-10-07T06:29:32.277Z,24.73
2022-10-07T06:30:03.674Z,24.74
2022-10-07T06:30:35.294Z,24.73
2022-10-07T06:31:06.800Z,24.71
2022-10-07T06:31:38.369Z,24.74
2022-10-07T06:32:09.723Z,24.70
2022-10-07T06:32:41.098Z,24.68
2022-10-07T06:33:12.487Z,24.71
2022-10-07T06:33:43.884Z,24.69
2022-10-07T06:34:15.274Z,24.71
2022-10-07T06:34:46.721Z,24.70
2022-10-07T06:35:18.141Z,24.69
2022-10-07T06:35:49.577Z,24.71
2022-10-07T06:36:21.004Z,24.70
2022-10-07T06:36:52.355Z,24.72
2022-10-07T06:37:23.776Z,24.73
2022-10-07T06:37:55.169Z,24.69
2022-10-07T06:38:26.671Z,24.72
2022-10-07T06:38:58.061Z,24.73
2022-10-07T06:39:29.392Z,24.77
2022-10-07T06:40:00.749Z,24.77
2022-10-07T06:40:32.136Z,24.77
2022-10-07T06:41:03.615Z,24.78
2022-10-07T06:41:35.197Z,24.80
2022-10-07T06:42:06.775Z,24.76
2022-10-07T06:42:38.126Z,24.77
2022-10-07T06:43:09.525Z,24.80
2022-10-07T06:43:40.952Z,24.80
2022-10-07T06:44:12.369Z,24.81
2022-10-07T06:44:43.763Z,24.82
2022-10-07T06:45:15.144Z,24.81
2022-10-07T06:45:46.605Z,24.81
2022-10-07T06:46:18.166Z,24.80
2022-10-07T06:46:49.677Z,24.78
2022-10-07T06:47:21.050Z,24.78
2022-10-07T06:47:52.434Z,24.74
2022-10-07T06:48:24.109Z,24.76
2022-10-07T06:48:55.586Z,24.76
2022-10-07T06:49:26.930Z,24.73
2022-10-07T06:49:58.307Z,24.70
2022-10-07T06:50:29.657Z,24.73
2022-10-07T06:51:01.037Z,24.68
2022-10-07T06:51:32.466Z,24.69
2022-10-07T06:52:03.881Z,24.71
2022-10-07T06:52:37.136Z,24.73
2022-10-07T06:53:11.458Z,24.70
2022-10-07T06:53:42.861Z,24.73
2022-10-07T06:54:14.241Z,24.76
2022-10-07T06:54:45.681Z,24.74
2022-10-07T06:55:17.036Z,24.74
2022-10-07T06:55:48.463Z,24.75
2022-10-07T06:56:19.857Z,24.76
2022-10-07T06:56:51.349Z,24.77
2022-10-07T06:58:14.053Z,24.80
2022-10-07T06:58:45.444Z,24.78
2022-10-07T06:59:16.826Z,24.78
2022-10-07T06:59:48.186Z,24.79
2022-10-07T07:00:19.541Z,24.75
2022-10-07T07:00:50.954Z,24.75
2022-10-07T07:01:22.421Z,24.76
2022-10-07T07:01:53.971Z,24.76
2022-10-07T07:02:25.644Z,24.76
2022-10-07T07:02:57.399Z,24.72
2022-10-07T07:03:28.742Z,24.75
2022-10-07T07:04:00.104Z,24.70
2022-10-07T07:04:31.476Z,24.72
2022-10-07T07:05:42.803Z,24.71
2022-10-07T07:06:16.978Z,24.74
2022-10-07T07:06:48.377Z,24.73
2022-10-07T07:07:19.774Z,24.76
2022-10-07T07:07:51.185Z,24.78
2022-10-07T07:08:22.614Z,24.79
2022-10-07T07:08:53.980Z,24.79
2022-10-07T07:09:25.390Z,24.80
2022-10-07T07:09:56.762Z,24.81
2022-10-07T07:10:28.164Z,24.80
2022-10-07T07:10:59.564Z,24.79
2022-10-07T07:11:30.900Z,24.82
2022-10-07T07:12:02.393Z,24.82
2022-10-07T07:12:33.813Z,24.79
2022-10-07T07:13:05.216Z,24.83
2022-10-07T07:13:36.599Z,24.85
2022-10-07T07:14:08.027Z,24.83
2022-10-07T07:14:39.443Z,24.81
2022-10-07T07:15:10.814Z,24.79
2022-10-07T07:15:42.168Z,24.82
2022-10-07T07:16:13.633Z,24.82
2022-10-07T07:16:45.099Z,24.81
2022-10-07T07:17:16.529Z,24.81
2022-10-07T07:17:48.504Z,24.83
2022-10-07T07:18:20.073Z,24.83
2022-10-07T07:18:51.424Z,24.83
2022-10-07T07:19:22.884Z,24.82
2022-10-07T07:19:54.253Z,24.80
2022-10-07T07:20:25.658Z,24.80
2022-10-07T07:20:57.114Z,24.80
2022-10-07T07:21:28.517Z,24.81
2022-10-07T07:21:59.915Z,24.80
2022-10-07T07:22:31.407Z,24.78
2022-10-07T07:23:02.821Z,24.77
2022-10-07T07:23:34.216Z,24.76
2022-10-07T07:24:05.523Z,24.74
2022-10-07T07:24:36.898Z,24.77
2022-10-07T07:25:08.286Z,24.76
2022-10-07T07:25:39.693Z,24.75
2022-10-07T07:26:11.170Z,24.76
2022-10-07T07:26:42.544Z,24.72
2022-10-07T07:27:13.946Z,24.76
2022-10-07T07:27:45.546Z,24.76
2022-10-07T07:28:17.127Z,24.73
2022-10-07T07:28:48.641Z,24.74
2022-10-07T07:29:20.051Z,24.76
2022-10-07T07:29:51.512Z,24.77
2022-10-07T07:30:22.932Z,24.76
2022-10-07T07:30:54.482Z,24.80
2022-10-07T07:31:25.907Z,24.78
2022-10-07T07:31:57.291Z,24.76
2022-10-07T07:32:28.648Z,24.78
2022-10-07T07:33:00.018Z,24.71
2022-10-07T07:33:31.617Z,24.73
2022-10-07T07:34:03.026Z,24.76
2022-10-07T07:34:34.430Z,24.75
2022-10-07T07:35:05.850Z,24.72
2022-10-07T07:35:37.287Z,24.73
2022-10-07T07:36:08.717Z,24.76
2022-10-07T07:36:40.092Z,24.76
2022-10-07T07:37:11.478Z,24.76
2022-10-07T07:37:43.113Z,24.75
2022-10-07T07:38:14.718Z,24.77
2022-10-07T07:38:46.124Z,24.78
2022-10-07T07:39:17.437Z,24.80
2022-10-07T07:39:48.795Z,24.77
2022-10-07T07:40:20.197Z,24.77
2022-10-07T07:40:51.561Z,24.74
2022-10-07T07:41:22.986Z,24.76
2022-10-07T07:41:54.374Z,24.76
2022-10-07T07:42:25.805Z,24.76
2022-10-07T07:42:57.225Z,24.77
2022-10-07T07:43:28.626Z,24.78
2022-10-07T07:44:00.062Z,24.75
2022-10-07T07:44:34.742Z,24.74
2022-10-07T07:45:06.528Z,24.78
2022-10-07T07:45:37.878Z,24.80
2022-10-07T07:46:09.351Z,24.80
2022-10-07T07:46:40.756Z,24.81
2022-10-07T07:47:12.187Z,24.80
2022-10-07T07:47:43.946Z,24.83
2022-10-07T07:48:15.582Z,24.82
2022-10-07T07:48:46.981Z,24.81
2022-10-07T07:49:18.386Z,24.82
2022-10-07T07:49:49.773Z,24.82
2022-10-07T07:50:21.131Z,24.83
2022-10-07T07:50:52.538Z,24.82
2022-10-07T07:51:23.922Z,24.84
2022-10-07T07:51:55.305Z,24.85
2022-10-07T07:52:26.766Z,24.85
2022-10-07T07:52:58.167Z,24.86
2022-10-07T07:53:29.624Z,24.84
2022-10-07T07:54:01.023Z,24.84
2022-10-07T07:54:32.429Z,24.83
2022-10-07T07:55:03.840Z,24.82
2022-10-07T07:55:35.210Z,24.85
2022-10-07T07:56:06.578Z,24.84
2022-10-07T07:56:37.951Z,24.82
2022-10-07T07:57:09.424Z,24.86
2022-10-07T07:57:40.808Z,24.84
2022-10-07T07:58:12.183Z,24.85
2022-10-07T07:58:43.542Z,24.83
2022-10-07T07:59:14.993Z,24.86
2022-10-07T07:59:46.379Z,24.86
2022-10-07T08:00:17.772Z,24.84
2022-10-07T08:00:49.247Z,24.84
2022-10-07T08:01:20.700Z,24.83
2022-10-07T08:01:52.213Z,24.84
2022-10-07T08:02:23.832Z,24.84
2022-10-07T08:02:55.333Z,24.82
2022-10-07T08:03:26.683Z,24.79
2022-10-07T08:03:58.165Z,24.77
2022-10-07T08:04:29.517Z,24.80
2022-10-07T08:05:00.877Z,24.80
2022-10-07T08:05:32.221Z,24.78
2022-10-07T08:06:03.603Z,24.72
2022-10-07T08:06:35.034Z,24.72
2022-10-07T08:07:06.525Z,24.73
2022-10-07T08:07:37.934Z,24.72
2022-10-07T08:08:09.294Z,24.68
2022-10-07T08:08:40.729Z,24.68
2022-10-07T08:09:12.118Z,24.66
2022-10-07T08:09:43.522Z,24.68
2022-10-07T08:10:14.845Z,24.65
2022-10-07T08:10:51.028Z,24.61
2022-10-07T08:11:23.226Z,24.62
2022-10-07T08:11:54.591Z,24.62
2022-10-07T08:12:26.019Z,24.60
2022-10-07T08:12:57.539Z,24.61
2022-10-07T08:13:28.993Z,24.61
2022-10-07T08:14:00.640Z,24.62
2022-10-07T08:14:32.042Z,24.62
2022-10-07T08:15:03.527Z,24.60
2022-10-07T08:15:34.996Z,24.63
2022-10-07T08:16:06.441Z,24.63
2022-10-07T08:16:37.844Z,24.64
2022-10-07T08:17:09.215Z,24.59
2022-10-07T08:17:40.625Z,24.61
2022-10-07T08:18:12.011Z,24.60
2022-10-07T08:18:43.401Z,24.62
2022-10-07T08:19:14.739Z,24.63
2022-10-07T08:19:46.177Z,24.61
2022-10-07T08:20:17.543Z,24.62
2022-10-07T08:20:48.923Z,24.59
2022-10-07T08:21:20.417Z,24.58
2022-10-07T08:21:51.848Z,24.57
2022-10-07T08:22:23.296Z,24.60
2022-10-07T08:22:58.889Z,24.60
2022-10-07T08:23:30.506Z,24.59
2022-10-07T08:24:01.869Z,24.60
2022-10-07T08:24:33.198Z,24.61
2022-10-07T08:25:04.597Z,24.57
2022-10-07T08:25:35.985Z,24.57
2022-10-07T08:26:07.418Z,24.57
2022-10-07T08:26:38.848Z,24.57
2022-10-07T08:27:10.255Z,24.62
2022-10-07T08:27:41.669Z,24.63
2022-10-07T08:28:13.065Z,24.62
2022-10-07T08:28:44.503Z,24.60
2022-10-07T08:29:15.909Z,24.60
2022-10-07T08:29:47.287Z,24.62
2022-10-07T08:30:18.697Z,24.60
2022-10-07T08:30:50.126Z,24.59
2022-10-07T08:31:21.618Z,24.53
2022-10-07T08:31:53.036Z,24.55
2022-10-07T08:32:24.524Z,24.54
2022-10-07T08:33:01.016Z,24.56
2022-10-07T08:33:32.820Z,24.60
2022-10-07T08:34:04.178Z,24.60
2022-10-07T08:34:35.568Z,24.62
2022-10-07T08:35:06.956Z,24.61
2022-10-07T08:35:38.358Z,24.57
2022-10-07T08:36:09.700Z,24.56
2022-10-07T08:36:41.139Z,24.57
2022-10-07T08:37:12.565Z,24.55
2022-10-07T08:37:44.448Z,24.59
2022-10-07T08:38:15.995Z,24.59
2022-10-07T08:38:50.244Z,24.59
2022-10-07T08:39:21.617Z,24.54
2022-10-07T08:39:53.020Z,24.53
2022-10-07T08:40:24.445Z,24.55
2022-10-07T08:40:55.877Z,24.54
2022-10-07T08:41:27.237Z,24.50
2022-10-07T08:41:58.631Z,24.52
2022-10-07T08:42:33.174Z,24.50
2022-10-07T08:43:04.656Z,24.51
2022-10-07T08:43:36.060Z,24.54
2022-10-07T08:44:08.157Z,24.52
2022-10-07T08:44:39.706Z,24.52
2022-10-07T08:45:11.053Z,24.51
2022-10-07T08:45:42.460Z,24.50
2022-10-07T08:46:13.926Z,24.51
2022-10-07T08:46:45.356Z,24.50
2022-10-07T08:47:16.728Z,24.50
2022-10-07T08:47:48.463Z,24.51
2022-10-07T08:48:20.080Z,24.48
2022-10-07T08:48:51.449Z,24.50
2022-10-07T08:49:22.821Z,24.47
2022-10-07T08:49:54.227Z,24.52
2022-10-07T08:50:25.650Z,24.50
2022-10-07T08:50:57.029Z,24.51
2022-10-07T08:51:28.393Z,24.50
2022-10-07T08:51:59.764Z,24.52
2022-10-07T08:52:31.214Z,24.51
2022-10-07T08:53:02.649Z,24.52
2022-10-07T08:53:34.037Z,24.54
2022-10-07T08:54:05.482Z,24.51
2022-10-07T08:54:36.871Z,24.48
2022-10-07T08:55:08.268Z,24.47
2022-10-07T08:55:39.697Z,24.53
2022-10-07T08:56:11.054Z,24.51
2022-10-07T08:56:42.498Z,24.52
2022-10-07T08:57:13.892Z,24.51
2022-10-07T08:57:45.628Z,24.53
2022-10-07T08:58:17.131Z,24.50
2022-10-07T08:58:48.533Z,24.49
2022-10-07T08:59:19.988Z,24.49
2022-10-07T08:59:51.417Z,24.47
2022-10-07T09:00:22.808Z,24.52
2022-10-07T09:00:54.273Z,24.51
2022-10-07T09:01:25.727Z,24.53
2022-10-07T09:01:57.164Z,24.56
2022-10-07T09:02:28.639Z,24.54
2022-10-07T09:03:00.150Z,24.55
2022-10-07T09:03:31.579Z,24.56
2022-10-07T09:04:02.925Z,24.58
2022-10-07T09:04:34.299Z,24.60
2022-10-07T09:05:05.692Z,24.56
2022-10-07T09:05:37.135Z,24.52
2022-10-07T09:06:08.546Z,24.55
2022-10-07T09:06:39.959Z,24.55
2022-10-07T09:07:11.410Z,24.57
2022-10-07T09:07:42.934Z,24.55
2022-10-07T09:08:14.503Z,24.57
2022-10-07T09:08:45.865Z,24.54
2022-10-07T09:09:17.258Z,24.58
2022-10-07T09:09:48.669Z,24.54
2022-10-07T09:10:20.128Z,24.55
2022-10-07T09:10:51.537Z,24.55
2022-10-07T09:11:22.989Z,24.55
2022-10-07T09:11:54.321Z,24.54
2022-10-07T09:12:25.805Z,24.56
2022-10-07T09:12:57.182Z,24.55
2022-10-07T09:13:28.598Z,24.53
2022-10-07T09:13:59.966Z,24.52
2022-10-07T09:14:31.337Z,24.52
2022-10-07T09:15:02.719Z,24.53
2022-10-07T09:15:34.193Z,24.52
2022-10-07T09:16:05.675Z,24.50
2022-10-07T09:16:37.111Z,24.44